sensor_id;sensor_type;location;lat;lon;timestamp;P1;durP1;ratioP1;P2;durP2;ratioP2
67749;SDS011;54550;48.838;8.828;2024-02-21T00:02:06;6.15;;;2.03;;
67749;SDS011;54550;48.838;8.828;2024-02-21T00:04:32;5.05;;;1.60;;
67749;SDS011;54550;48.838;8.828;2024-02-21T00:07:01;7.47;;;1.80;;
67749;SDS011;54550;48.838;8.828;2024-02-21T00:09:27;4.68;;;1.67;;
67749;SDS011;54550;48.838;8.828;2024-02-21T00:11:53;8.63;;;1.95;;
67749;SDS011;54550;48.838;8.828;2024-02-21T00:14:18;7.57;;;1.77;;
67749;SDS011;54550;48.838;8.828;2024-02-21T00:16:43;5.63;;;2.10;;
67749;SDS011;54550;48.838;8.828;2024-02-21T00:19:09;6.60;;;2.25;;
67749;SDS011;54550;48.838;8.828;2024-02-21T00:21:34;6.68;;;2.33;;
67749;SDS011;54550;48.838;8.828;2024-02-21T00:24:00;7.93;;;2.33;;
67749;SDS011;54550;48.838;8.828;2024-02-21T00:26:25;13.35;;;2.47;;
67749;SDS011;54550;48.838;8.828;2024-02-21T00:28:53;5.00;;;1.77;;
67749;SDS011;54550;48.838;8.828;2024-02-21T00:31:37;5.40;;;1.75;;
67749;SDS011;54550;48.838;8.828;2024-02-21T00:34:11;5.53;;;1.90;;
67749;SDS011;54550;48.838;8.828;2024-02-21T00:36:38;9.43;;;2.28;;
67749;SDS011;54550;48.838;8.828;2024-02-21T00:39:03;7.53;;;2.55;;
67749;SDS011;54550;48.838;8.828;2024-02-21T00:41:29;8.65;;;1.75;;
67749;SDS011;54550;48.838;8.828;2024-02-21T00:43:54;9.73;;;2.03;;
67749;SDS011;54550;48.838;8.828;2024-02-21T00:46:22;5.32;;;1.90;;
67749;SDS011;54550;48.838;8.828;2024-02-21T00:48:48;6.57;;;1.70;;
67749;SDS011;54550;48.838;8.828;2024-02-21T00:51:15;5.78;;;1.50;;
67749;SDS011;54550;48.838;8.828;2024-02-21T00:53:40;5.93;;;1.48;;
67749;SDS011;54550;48.838;8.828;2024-02-21T00:56:06;6.72;;;1.92;;
67749;SDS011;54550;48.838;8.828;2024-02-21T00:58:31;8.07;;;1.73;;
67749;SDS011;54550;48.838;8.828;2024-02-21T01:01:03;11.40;;;2.17;;
67749;SDS011;54550;48.838;8.828;2024-02-21T01:03:28;4.82;;;2.00;;
67749;SDS011;54550;48.838;8.828;2024-02-21T01:05:54;3.10;;;1.33;;
67749;SDS011;54550;48.838;8.828;2024-02-21T01:08:22;5.90;;;1.60;;
67749;SDS011;54550;48.838;8.828;2024-02-21T01:10:51;6.63;;;1.77;;
67749;SDS011;54550;48.838;8.828;2024-02-21T01:13:17;3.63;;;1.23;;
67749;SDS011;54550;48.838;8.828;2024-02-21T01:15:48;5.60;;;1.80;;
67749;SDS011;54550;48.838;8.828;2024-02-21T01:18:16;6.50;;;1.08;;
67749;SDS011;54550;48.838;8.828;2024-02-21T01:23:47;6.68;;;1.75;;
67749;SDS011;54550;48.838;8.828;2024-02-21T01:26:12;6.20;;;1.73;;
67749;SDS011;54550;48.838;8.828;2024-02-21T01:28:40;6.05;;;1.70;;
67749;SDS011;54550;48.838;8.828;2024-02-21T01:31:06;9.15;;;1.40;;
67749;SDS011;54550;48.838;8.828;2024-02-21T01:33:32;5.05;;;1.50;;
67749;SDS011;54550;48.838;8.828;2024-02-21T01:36:02;6.50;;;1.80;;
67749;SDS011;54550;48.838;8.828;2024-02-21T01:38:31;10.82;;;1.77;;
67749;SDS011;54550;48.838;8.828;2024-02-21T01:40:57;6.25;;;1.45;;
67749;SDS011;54550;48.838;8.828;2024-02-21T01:43:31;8.50;;;1.73;;
67749;SDS011;54550;48.838;8.828;2024-02-21T01:46:03;4.35;;;1.67;;
67749;SDS011;54550;48.838;8.828;2024-02-21T01:48:38;6.97;;;1.58;;
67749;SDS011;54550;48.838;8.828;2024-02-21T01:51:04;5.68;;;1.73;;
67749;SDS011;54550;48.838;8.828;2024-02-21T01:53:44;4.90;;;1.27;;
67749;SDS011;54550;48.838;8.828;2024-02-21T01:56:10;8.50;;;1.77;;
67749;SDS011;54550;48.838;8.828;2024-02-21T01:58:48;6.57;;;1.67;;
67749;SDS011;54550;48.838;8.828;2024-02-21T02:01:14;5.57;;;1.45;;
67749;SDS011;54550;48.838;8.828;2024-02-21T02:03:39;10.80;;;1.88;;
67749;SDS011;54550;48.838;8.828;2024-02-21T02:06:05;6.07;;;2.13;;
67749;SDS011;54550;48.838;8.828;2024-02-21T02:08:34;7.13;;;1.48;;
67749;SDS011;54550;48.838;8.828;2024-02-21T02:10:59;7.90;;;2.45;;
67749;SDS011;54550;48.838;8.828;2024-02-21T02:13:25;4.82;;;1.40;;
67749;SDS011;54550;48.838;8.828;2024-02-21T02:19:01;5.00;;;1.10;;
67749;SDS011;54550;48.838;8.828;2024-02-21T02:24:04;4.93;;;1.20;;
67749;SDS011;54550;48.838;8.828;2024-02-21T02:26:36;3.58;;;1.48;;
67749;SDS011;54550;48.838;8.828;2024-02-21T02:29:10;2.80;;;1.17;;
67749;SDS011;54550;48.838;8.828;2024-02-21T02:31:39;4.57;;;1.65;;
67749;SDS011;54550;48.838;8.828;2024-02-21T02:34:04;6.80;;;1.17;;
67749;SDS011;54550;48.838;8.828;2024-02-21T02:36:48;4.60;;;1.45;;
67749;SDS011;54550;48.838;8.828;2024-02-21T02:39:22;7.80;;;2.22;;
67749;SDS011;54550;48.838;8.828;2024-02-21T02:41:51;5.30;;;1.05;;
67749;SDS011;54550;48.838;8.828;2024-02-21T02:44:49;9.38;;;2.13;;
67749;SDS011;54550;48.838;8.828;2024-02-21T02:47:10;3.00;;;1.25;;
67749;SDS011;54550;48.838;8.828;2024-02-21T02:49:38;6.60;;;1.27;;
67749;SDS011;54550;48.838;8.828;2024-02-21T02:52:13;4.88;;;1.50;;
67749;SDS011;54550;48.838;8.828;2024-02-21T02:54:41;2.90;;;1.42;;
67749;SDS011;54550;48.838;8.828;2024-02-21T02:57:07;11.07;;;1.92;;
67749;SDS011;54550;48.838;8.828;2024-02-21T03:00:13;6.18;;;1.30;;
67749;SDS011;54550;48.838;8.828;2024-02-21T03:02:40;9.15;;;1.70;;
67749;SDS011;54550;48.838;8.828;2024-02-21T03:05:37;7.18;;;1.55;;
67749;SDS011;54550;48.838;8.828;2024-02-21T03:08:40;6.15;;;1.42;;
67749;SDS011;54550;48.838;8.828;2024-02-21T03:11:17;5.85;;;2.03;;
67749;SDS011;54550;48.838;8.828;2024-02-21T03:13:46;3.95;;;1.95;;
67749;SDS011;54550;48.838;8.828;2024-02-21T03:16:12;7.50;;;1.23;;
67749;SDS011;54550;48.838;8.828;2024-02-21T03:18:47;9.60;;;2.30;;
67749;SDS011;54550;48.838;8.828;2024-02-21T03:23:38;3.43;;;1.20;;
67749;SDS011;54550;48.838;8.828;2024-02-21T03:26:19;5.55;;;1.23;;
67749;SDS011;54550;48.838;8.828;2024-02-21T03:29:05;3.95;;;1.48;;
67749;SDS011;54550;48.838;8.828;2024-02-21T03:31:37;5.40;;;1.48;;
67749;SDS011;54550;48.838;8.828;2024-02-21T03:34:08;6.53;;;1.38;;
67749;SDS011;54550;48.838;8.828;2024-02-21T03:36:35;6.18;;;1.65;;
67749;SDS011;54550;48.838;8.828;2024-02-21T03:39:06;3.53;;;1.20;;
67749;SDS011;54550;48.838;8.828;2024-02-21T03:44:12;4.07;;;1.25;;
67749;SDS011;54550;48.838;8.828;2024-02-21T03:46:38;7.47;;;1.58;;
67749;SDS011;54550;48.838;8.828;2024-02-21T03:49:03;7.72;;;1.45;;
67749;SDS011;54550;48.838;8.828;2024-02-21T03:51:29;2.33;;;1.15;;
67749;SDS011;54550;48.838;8.828;2024-02-21T03:53:58;8.35;;;1.60;;
67749;SDS011;54550;48.838;8.828;2024-02-21T03:59:39;3.67;;;1.52;;
67749;SDS011;54550;48.838;8.828;2024-02-21T04:02:08;3.95;;;1.33;;
67749;SDS011;54550;48.838;8.828;2024-02-21T04:04:43;2.75;;;0.93;;
67749;SDS011;54550;48.838;8.828;2024-02-21T04:07:27;5.55;;;1.40;;
67749;SDS011;54550;48.838;8.828;2024-02-21T04:09:53;2.65;;;1.30;;
67749;SDS011;54550;48.838;8.828;2024-02-21T04:12:33;3.75;;;1.33;;
67749;SDS011;54550;48.838;8.828;2024-02-21T04:17:44;3.67;;;1.23;;
67749;SDS011;54550;48.838;8.828;2024-02-21T04:20:36;4.32;;;1.30;;
67749;SDS011;54550;48.838;8.828;2024-02-21T04:23:01;9.07;;;1.50;;
67749;SDS011;54550;48.838;8.828;2024-02-21T04:25:27;4.75;;;1.13;;
67749;SDS011;54550;48.838;8.828;2024-02-21T04:27:55;7.53;;;1.63;;
67749;SDS011;54550;48.838;8.828;2024-02-21T04:30:21;2.85;;;1.08;;
67749;SDS011;54550;48.838;8.828;2024-02-21T04:32:57;3.42;;;1.60;;
67749;SDS011;54550;48.838;8.828;2024-02-21T04:35:28;6.55;;;1.38;;
67749;SDS011;54550;48.838;8.828;2024-02-21T04:40:56;3.65;;;1.48;;
67749;SDS011;54550;48.838;8.828;2024-02-21T04:43:33;4.72;;;1.20;;
67749;SDS011;54550;48.838;8.828;2024-02-21T04:46:07;6.25;;;1.65;;
67749;SDS011;54550;48.838;8.828;2024-02-21T04:48:33;5.95;;;1.35;;
67749;SDS011;54550;48.838;8.828;2024-02-21T04:50:59;2.70;;;0.98;;
67749;SDS011;54550;48.838;8.828;2024-02-21T04:53:28;4.43;;;1.52;;
67749;SDS011;54550;48.838;8.828;2024-02-21T04:58:26;4.30;;;1.17;;
67749;SDS011;54550;48.838;8.828;2024-02-21T05:00:51;4.85;;;1.15;;
67749;SDS011;54550;48.838;8.828;2024-02-21T05:03:18;5.50;;;1.20;;
67749;SDS011;54550;48.838;8.828;2024-02-21T05:05:53;4.30;;;1.42;;
67749;SDS011;54550;48.838;8.828;2024-02-21T05:08:21;2.97;;;0.77;;
67749;SDS011;54550;48.838;8.828;2024-02-21T05:10:46;8.57;;;1.40;;
67749;SDS011;54550;48.838;8.828;2024-02-21T05:13:12;7.55;;;2.13;;
67749;SDS011;54550;48.838;8.828;2024-02-21T05:15:44;3.47;;;1.13;;
67749;SDS011;54550;48.838;8.828;2024-02-21T05:18:28;7.88;;;1.95;;
67749;SDS011;54550;48.838;8.828;2024-02-21T05:21:13;2.72;;;1.00;;
67749;SDS011;54550;48.838;8.828;2024-02-21T05:23:39;3.03;;;1.23;;
67749;SDS011;54550;48.838;8.828;2024-02-21T05:26:05;6.32;;;1.52;;
67749;SDS011;54550;48.838;8.828;2024-02-21T05:28:52;4.95;;;1.67;;
67749;SDS011;54550;48.838;8.828;2024-02-21T05:31:27;4.80;;;0.95;;
67749;SDS011;54550;48.838;8.828;2024-02-21T05:34:08;5.32;;;2.15;;
67749;SDS011;54550;48.838;8.828;2024-02-21T05:36:37;3.15;;;1.42;;
67749;SDS011;54550;48.838;8.828;2024-02-21T05:39:05;3.70;;;1.13;;
67749;SDS011;54550;48.838;8.828;2024-02-21T05:41:30;15.98;;;1.88;;
67749;SDS011;54550;48.838;8.828;2024-02-21T05:43:55;4.85;;;1.73;;
67749;SDS011;54550;48.838;8.828;2024-02-21T05:46:21;8.82;;;1.98;;
67749;SDS011;54550;48.838;8.828;2024-02-21T05:48:47;6.28;;;1.63;;
67749;SDS011;54550;48.838;8.828;2024-02-21T05:51:29;6.53;;;1.38;;
67749;SDS011;54550;48.838;8.828;2024-02-21T05:57:26;4.95;;;1.05;;
67749;SDS011;54550;48.838;8.828;2024-02-21T06:00:13;3.70;;;1.38;;
67749;SDS011;54550;48.838;8.828;2024-02-21T06:03:16;12.02;;;2.50;;
67749;SDS011;54550;48.838;8.828;2024-02-21T06:05:44;3.95;;;0.98;;
67749;SDS011;54550;48.838;8.828;2024-02-21T06:08:23;3.95;;;1.38;;
67749;SDS011;54550;48.838;8.828;2024-02-21T06:11:06;5.70;;;1.13;;
67749;SDS011;54550;48.838;8.828;2024-02-21T06:13:46;2.88;;;1.05;;
67749;SDS011;54550;48.838;8.828;2024-02-21T06:16:28;4.35;;;1.50;;
67749;SDS011;54550;48.838;8.828;2024-02-21T06:18:57;3.63;;;1.25;;
67749;SDS011;54550;48.838;8.828;2024-02-21T06:21:23;5.47;;;1.27;;
67749;SDS011;54550;48.838;8.828;2024-02-21T06:23:56;6.55;;;1.20;;
67749;SDS011;54550;48.838;8.828;2024-02-21T06:26:22;11.38;;;1.75;;
67749;SDS011;54550;48.838;8.828;2024-02-21T06:29:19;5.72;;;1.60;;
67749;SDS011;54550;48.838;8.828;2024-02-21T06:31:57;2.22;;;0.98;;
67749;SDS011;54550;48.838;8.828;2024-02-21T06:34:23;10.63;;;1.73;;
67749;SDS011;54550;48.838;8.828;2024-02-21T06:37:04;6.95;;;1.90;;
67749;SDS011;54550;48.838;8.828;2024-02-21T06:39:41;2.70;;;1.20;;
67749;SDS011;54550;48.838;8.828;2024-02-21T06:42:07;9.40;;;1.20;;
67749;SDS011;54550;48.838;8.828;2024-02-21T06:44:54;4.40;;;1.55;;
67749;SDS011;54550;48.838;8.828;2024-02-21T06:49:59;1.77;;;0.60;;
67749;SDS011;54550;48.838;8.828;2024-02-21T06:52:25;5.72;;;1.42;;
67749;SDS011;54550;48.838;8.828;2024-02-21T06:54:50;4.88;;;1.40;;
67749;SDS011;54550;48.838;8.828;2024-02-21T06:57:16;4.60;;;1.10;;
67749;SDS011;54550;48.838;8.828;2024-02-21T06:59:48;3.22;;;1.10;;
67749;SDS011;54550;48.838;8.828;2024-02-21T07:02:17;4.35;;;1.17;;
67749;SDS011;54550;48.838;8.828;2024-02-21T07:04:45;5.47;;;1.30;;
67749;SDS011;54550;48.838;8.828;2024-02-21T07:07:28;3.13;;;1.17;;
67749;SDS011;54550;48.838;8.828;2024-02-21T07:09:57;5.18;;;1.60;;
67749;SDS011;54550;48.838;8.828;2024-02-21T07:12:25;10.68;;;1.77;;
67749;SDS011;54550;48.838;8.828;2024-02-21T07:14:51;7.60;;;1.83;;
67749;SDS011;54550;48.838;8.828;2024-02-21T07:17:28;5.78;;;1.42;;
67749;SDS011;54550;48.838;8.828;2024-02-21T07:19:53;5.40;;;1.58;;
67749;SDS011;54550;48.838;8.828;2024-02-21T07:22:21;5.50;;;1.80;;
67749;SDS011;54550;48.838;8.828;2024-02-21T07:24:47;5.55;;;1.38;;
67749;SDS011;54550;48.838;8.828;2024-02-21T07:27:16;3.72;;;1.83;;
67749;SDS011;54550;48.838;8.828;2024-02-21T07:29:42;3.60;;;1.23;;
67749;SDS011;54550;48.838;8.828;2024-02-21T07:32:07;3.75;;;1.17;;
67749;SDS011;54550;48.838;8.828;2024-02-21T07:34:42;4.40;;;1.58;;
67749;SDS011;54550;48.838;8.828;2024-02-21T07:37:08;5.28;;;1.90;;
67749;SDS011;54550;48.838;8.828;2024-02-21T07:39:35;11.57;;;2.60;;
67749;SDS011;54550;48.838;8.828;2024-02-21T07:42:02;5.43;;;1.05;;
67749;SDS011;54550;48.838;8.828;2024-02-21T07:44:33;6.38;;;1.35;;
67749;SDS011;54550;48.838;8.828;2024-02-21T07:46:59;4.78;;;1.45;;
67749;SDS011;54550;48.838;8.828;2024-02-21T07:49:25;3.72;;;1.60;;
67749;SDS011;54550;48.838;8.828;2024-02-21T07:51:50;9.48;;;1.80;;
67749;SDS011;54550;48.838;8.828;2024-02-21T07:54:17;5.70;;;1.80;;
67749;SDS011;54550;48.838;8.828;2024-02-21T07:56:42;7.93;;;2.42;;
67749;SDS011;54550;48.838;8.828;2024-02-21T07:59:08;3.83;;;1.83;;
67749;SDS011;54550;48.838;8.828;2024-02-21T08:01:33;4.53;;;1.60;;
67749;SDS011;54550;48.838;8.828;2024-02-21T08:03:59;7.50;;;1.50;;
67749;SDS011;54550;48.838;8.828;2024-02-21T08:06:24;6.78;;;1.92;;
67749;SDS011;54550;48.838;8.828;2024-02-21T08:08:50;4.13;;;1.35;;
67749;SDS011;54550;48.838;8.828;2024-02-21T08:11:15;5.78;;;1.17;;
67749;SDS011;54550;48.838;8.828;2024-02-21T08:13:41;3.58;;;1.35;;
67749;SDS011;54550;48.838;8.828;2024-02-21T08:16:06;4.97;;;1.05;;
67749;SDS011;54550;48.838;8.828;2024-02-21T08:18:31;5.97;;;1.30;;
67749;SDS011;54550;48.838;8.828;2024-02-21T08:20:59;9.63;;;1.02;;
67749;SDS011;54550;48.838;8.828;2024-02-21T08:23:24;1.80;;;0.80;;
67749;SDS011;54550;48.838;8.828;2024-02-21T08:25:53;4.78;;;1.02;;
67749;SDS011;54550;48.838;8.828;2024-02-21T08:28:18;2.97;;;0.90;;
67749;SDS011;54550;48.838;8.828;2024-02-21T08:30:43;3.10;;;1.00;;
67749;SDS011;54550;48.838;8.828;2024-02-21T08:33:12;2.47;;;0.82;;
67749;SDS011;54550;48.838;8.828;2024-02-21T08:35:38;3.10;;;0.73;;
67749;SDS011;54550;48.838;8.828;2024-02-21T08:38:03;3.17;;;1.00;;
67749;SDS011;54550;48.838;8.828;2024-02-21T08:40:29;1.65;;;0.60;;
67749;SDS011;54550;48.838;8.828;2024-02-21T08:42:54;4.53;;;1.08;;
67749;SDS011;54550;48.838;8.828;2024-02-21T08:45:20;1.95;;;0.50;;
67749;SDS011;54550;48.838;8.828;2024-02-21T08:47:45;5.43;;;0.87;;
67749;SDS011;54550;48.838;8.828;2024-02-21T08:50:16;5.40;;;0.70;;
67749;SDS011;54550;48.838;8.828;2024-02-21T08:52:42;3.38;;;0.80;;
67749;SDS011;54550;48.838;8.828;2024-02-21T08:55:07;2.08;;;0.60;;
67749;SDS011;54550;48.838;8.828;2024-02-21T08:57:33;11.93;;;1.23;;
67749;SDS011;54550;48.838;8.828;2024-02-21T09:00:04;5.20;;;0.85;;
67749;SDS011;54550;48.838;8.828;2024-02-21T09:02:35;4.05;;;1.05;;
67749;SDS011;54550;48.838;8.828;2024-02-21T09:05:05;5.50;;;1.10;;
67749;SDS011;54550;48.838;8.828;2024-02-21T09:07:31;3.58;;;1.02;;
67749;SDS011;54550;48.838;8.828;2024-02-21T09:10:00;5.70;;;0.90;;
67749;SDS011;54550;48.838;8.828;2024-02-21T09:12:26;3.88;;;0.80;;
67749;SDS011;54550;48.838;8.828;2024-02-21T09:15:09;4.30;;;0.95;;
67749;SDS011;54550;48.838;8.828;2024-02-21T09:17:35;5.10;;;0.88;;
67749;SDS011;54550;48.838;8.828;2024-02-21T09:20:01;2.90;;;0.75;;
67749;SDS011;54550;48.838;8.828;2024-02-21T09:22:31;4.80;;;0.90;;
67749;SDS011;54550;48.838;8.828;2024-02-21T09:25:06;3.25;;;0.70;;
67749;SDS011;54550;48.838;8.828;2024-02-21T09:27:32;4.70;;;0.70;;
67749;SDS011;54550;48.838;8.828;2024-02-21T09:29:57;3.78;;;0.52;;
67749;SDS011;54550;48.838;8.828;2024-02-21T09:32:23;4.15;;;1.00;;
67749;SDS011;54550;48.838;8.828;2024-02-21T09:34:48;5.13;;;0.80;;
67749;SDS011;54550;48.838;8.828;2024-02-21T09:37:13;2.92;;;0.90;;
67749;SDS011;54550;48.838;8.828;2024-02-21T09:39:39;4.47;;;1.08;;
67749;SDS011;54550;48.838;8.828;2024-02-21T09:42:07;2.17;;;0.75;;
67749;SDS011;54550;48.838;8.828;2024-02-21T09:44:36;3.53;;;0.65;;
67749;SDS011;54550;48.838;8.828;2024-02-21T09:47:04;3.97;;;0.90;;
67749;SDS011;54550;48.838;8.828;2024-02-21T09:49:32;3.85;;;0.98;;
67749;SDS011;54550;48.838;8.828;2024-02-21T09:52:02;4.53;;;1.00;;
67749;SDS011;54550;48.838;8.828;2024-02-21T09:54:28;6.68;;;0.90;;
67749;SDS011;54550;48.838;8.828;2024-02-21T09:56:55;3.03;;;0.60;;
67749;SDS011;54550;48.838;8.828;2024-02-21T09:59:20;5.82;;;0.88;;
67749;SDS011;54550;48.838;8.828;2024-02-21T10:01:47;7.10;;;0.85;;
67749;SDS011;54550;48.838;8.828;2024-02-21T10:04:12;4.72;;;0.77;;
67749;SDS011;54550;48.838;8.828;2024-02-21T10:06:38;3.47;;;0.88;;
67749;SDS011;54550;48.838;8.828;2024-02-21T10:09:04;2.22;;;0.70;;
67749;SDS011;54550;48.838;8.828;2024-02-21T10:11:31;5.70;;;0.90;;
67749;SDS011;54550;48.838;8.828;2024-02-21T10:14:05;3.67;;;0.70;;
67749;SDS011;54550;48.838;8.828;2024-02-21T10:16:31;4.32;;;0.65;;
67749;SDS011;54550;48.838;8.828;2024-02-21T10:18:57;4.85;;;1.02;;
67749;SDS011;54550;48.838;8.828;2024-02-21T10:21:22;2.67;;;0.70;;
67749;SDS011;54550;48.838;8.828;2024-02-21T10:23:48;3.92;;;0.82;;
67749;SDS011;54550;48.838;8.828;2024-02-21T10:26:14;3.47;;;1.05;;
67749;SDS011;54550;48.838;8.828;2024-02-21T10:28:41;3.50;;;0.93;;
67749;SDS011;54550;48.838;8.828;2024-02-21T10:31:26;2.30;;;0.60;;
67749;SDS011;54550;48.838;8.828;2024-02-21T10:33:56;4.43;;;1.15;;
67749;SDS011;54550;48.838;8.828;2024-02-21T10:36:22;3.45;;;0.90;;
67749;SDS011;54550;48.838;8.828;2024-02-21T10:38:48;3.28;;;0.60;;
67749;SDS011;54550;48.838;8.828;2024-02-21T10:41:14;2.57;;;0.70;;
67749;SDS011;54550;48.838;8.828;2024-02-21T10:43:41;4.90;;;0.82;;
67749;SDS011;54550;48.838;8.828;2024-02-21T10:46:06;4.07;;;1.10;;
67749;SDS011;54550;48.838;8.828;2024-02-21T10:48:38;6.35;;;0.75;;
67749;SDS011;54550;48.838;8.828;2024-02-21T10:51:14;4.45;;;0.88;;
67749;SDS011;54550;48.838;8.828;2024-02-21T10:53:45;6.43;;;0.90;;
67749;SDS011;54550;48.838;8.828;2024-02-21T10:58:50;6.00;;;0.80;;
67749;SDS011;54550;48.838;8.828;2024-02-21T11:01:15;5.03;;;0.70;;
67749;SDS011;54550;48.838;8.828;2024-02-21T11:03:43;2.97;;;0.77;;
67749;SDS011;54550;48.838;8.828;2024-02-21T11:06:10;5.47;;;0.70;;
67749;SDS011;54550;48.838;8.828;2024-02-21T11:08:36;6.30;;;1.15;;
67749;SDS011;54550;48.838;8.828;2024-02-21T11:11:01;2.73;;;0.80;;
67749;SDS011;54550;48.838;8.828;2024-02-21T11:13:31;3.90;;;0.80;;
67749;SDS011;54550;48.838;8.828;2024-02-21T11:16:10;5.30;;;0.70;;
67749;SDS011;54550;48.838;8.828;2024-02-21T11:18:39;3.58;;;0.77;;
67749;SDS011;54550;48.838;8.828;2024-02-21T11:21:04;3.58;;;0.73;;
67749;SDS011;54550;48.838;8.828;2024-02-21T11:23:30;2.83;;;0.70;;
67749;SDS011;54550;48.838;8.828;2024-02-21T11:28:31;1.38;;;0.50;;
67749;SDS011;54550;48.838;8.828;2024-02-21T11:31:14;4.03;;;0.70;;
67749;SDS011;54550;48.838;8.828;2024-02-21T11:33:40;4.35;;;0.80;;
67749;SDS011;54550;48.838;8.828;2024-02-21T11:36:07;3.95;;;0.80;;
67749;SDS011;54550;48.838;8.828;2024-02-21T11:38:33;4.13;;;1.00;;
67749;SDS011;54550;48.838;8.828;2024-02-21T11:40:58;4.30;;;0.88;;
67749;SDS011;54550;48.838;8.828;2024-02-21T11:43:24;4.00;;;0.77;;
67749;SDS011;54550;48.838;8.828;2024-02-21T11:45:50;3.40;;;0.60;;
67749;SDS011;54550;48.838;8.828;2024-02-21T11:48:15;5.50;;;0.95;;
67749;SDS011;54550;48.838;8.828;2024-02-21T11:53:06;3.20;;;0.83;;
67749;SDS011;54550;48.838;8.828;2024-02-21T11:55:31;3.72;;;0.82;;
67749;SDS011;54550;48.838;8.828;2024-02-21T12:00:22;4.43;;;0.77;;
67749;SDS011;54550;48.838;8.828;2024-02-21T12:02:49;3.65;;;0.95;;
67749;SDS011;54550;48.838;8.828;2024-02-21T12:07:40;2.80;;;0.60;;
67749;SDS011;54550;48.838;8.828;2024-02-21T12:12:40;4.30;;;1.05;;
67749;SDS011;54550;48.838;8.828;2024-02-21T12:17:35;3.05;;;0.80;;
67749;SDS011;54550;48.838;8.828;2024-02-21T12:20:04;2.78;;;0.82;;
67749;SDS011;54550;48.838;8.828;2024-02-21T12:22:31;3.22;;;0.52;;
67749;SDS011;54550;48.838;8.828;2024-02-21T12:24:57;2.88;;;0.60;;
67749;SDS011;54550;48.838;8.828;2024-02-21T12:27:23;3.70;;;0.80;;
67749;SDS011;54550;48.838;8.828;2024-02-21T12:29:48;5.33;;;0.70;;
67749;SDS011;54550;48.838;8.828;2024-02-21T12:32:14;2.28;;;0.65;;
67749;SDS011;54550;48.838;8.828;2024-02-21T12:37:05;1.80;;;0.50;;
67749;SDS011;54550;48.838;8.828;2024-02-21T12:39:30;3.58;;;0.57;;
67749;SDS011;54550;48.838;8.828;2024-02-21T12:41:56;4.03;;;0.80;;
67749;SDS011;54550;48.838;8.828;2024-02-21T12:44:22;4.93;;;0.63;;
67749;SDS011;54550;48.838;8.828;2024-02-21T12:49:17;2.95;;;0.60;;
67749;SDS011;54550;48.838;8.828;2024-02-21T12:51:43;2.53;;;0.68;;
67749;SDS011;54550;48.838;8.828;2024-02-21T12:56:36;5.00;;;1.00;;
67749;SDS011;54550;48.838;8.828;2024-02-21T12:59:01;2.60;;;0.65;;
67749;SDS011;54550;48.838;8.828;2024-02-21T13:03:53;3.13;;;0.70;;
67749;SDS011;54550;48.838;8.828;2024-02-21T13:06:19;4.65;;;0.70;;
67749;SDS011;54550;48.838;8.828;2024-02-21T13:11:10;3.80;;;0.80;;
67749;SDS011;54550;48.838;8.828;2024-02-21T13:13:37;3.45;;;0.65;;
67749;SDS011;54550;48.838;8.828;2024-02-21T13:18:28;3.40;;;0.90;;
67749;SDS011;54550;48.838;8.828;2024-02-21T13:20:53;3.33;;;0.70;;
67749;SDS011;54550;48.838;8.828;2024-02-21T13:25:46;6.28;;;1.08;;
67749;SDS011;54550;48.838;8.828;2024-02-21T13:30:37;1.27;;;0.47;;
67749;SDS011;54550;48.838;8.828;2024-02-21T13:35:28;2.42;;;0.57;;
67749;SDS011;54550;48.838;8.828;2024-02-21T13:40:19;3.17;;;0.70;;
67749;SDS011;54550;48.838;8.828;2024-02-21T13:45:09;2.60;;;0.70;;
67749;SDS011;54550;48.838;8.828;2024-02-21T13:50:04;1.30;;;0.40;;
67749;SDS011;54550;48.838;8.828;2024-02-21T13:52:30;2.97;;;0.52;;
67749;SDS011;54550;48.838;8.828;2024-02-21T13:57:21;1.25;;;0.20;;
67749;SDS011;54550;48.838;8.828;2024-02-21T13:59:47;1.17;;;0.20;;
67749;SDS011;54550;48.838;8.828;2024-02-21T14:04:38;1.27;;;0.40;;
67749;SDS011;54550;48.838;8.828;2024-02-21T14:09:29;2.57;;;0.50;;
67749;SDS011;54550;48.838;8.828;2024-02-21T14:14:19;2.08;;;0.40;;
67749;SDS011;54550;48.838;8.828;2024-02-21T14:19:12;1.13;;;0.32;;
67749;SDS011;54550;48.838;8.828;2024-02-21T14:21:38;0.93;;;0.20;;
67749;SDS011;54550;48.838;8.828;2024-02-21T14:26:29;3.15;;;0.90;;
67749;SDS011;54550;48.838;8.828;2024-02-21T14:28:56;4.82;;;0.90;;
67749;SDS011;54550;48.838;8.828;2024-02-21T14:31:21;4.13;;;0.65;;
67749;SDS011;54550;48.838;8.828;2024-02-21T14:33:47;5.63;;;0.90;;
67749;SDS011;54550;48.838;8.828;2024-02-21T14:36:12;8.20;;;0.87;;
67749;SDS011;54550;48.838;8.828;2024-02-21T14:38:37;4.22;;;0.75;;
67749;SDS011;54550;48.838;8.828;2024-02-21T14:41:03;7.40;;;1.20;;
67749;SDS011;54550;48.838;8.828;2024-02-21T14:43:28;6.18;;;1.08;;
67749;SDS011;54550;48.838;8.828;2024-02-21T14:45:54;4.83;;;1.17;;
67749;SDS011;54550;48.838;8.828;2024-02-21T14:48:20;7.47;;;0.98;;
67749;SDS011;54550;48.838;8.828;2024-02-21T14:50:46;4.57;;;0.80;;
67749;SDS011;54550;48.838;8.828;2024-02-21T14:53:11;7.53;;;2.13;;
67749;SDS011;54550;48.838;8.828;2024-02-21T14:55:36;6.70;;;2.07;;
67749;SDS011;54550;48.838;8.828;2024-02-21T14:58:05;6.15;;;2.35;;
67749;SDS011;54550;48.838;8.828;2024-02-21T15:00:31;9.95;;;4.13;;
67749;SDS011;54550;48.838;8.828;2024-02-21T15:02:57;9.17;;;3.87;;
67749;SDS011;54550;48.838;8.828;2024-02-21T15:05:23;10.80;;;2.35;;
67749;SDS011;54550;48.838;8.828;2024-02-21T15:07:48;4.95;;;1.85;;
67749;SDS011;54550;48.838;8.828;2024-02-21T15:10:14;7.85;;;1.77;;
67749;SDS011;54550;48.838;8.828;2024-02-21T15:12:39;5.07;;;1.42;;
67749;SDS011;54550;48.838;8.828;2024-02-21T15:15:05;4.10;;;1.55;;
67749;SDS011;54550;48.838;8.828;2024-02-21T15:17:33;3.78;;;1.02;;
67749;SDS011;54550;48.838;8.828;2024-02-21T15:19:59;2.30;;;0.50;;
67749;SDS011;54550;48.838;8.828;2024-02-21T15:24:50;0.70;;;0.30;;
67749;SDS011;54550;48.838;8.828;2024-02-21T15:27:16;2.35;;;0.57;;
67749;SDS011;54550;48.838;8.828;2024-02-21T15:29:41;3.88;;;0.95;;
67749;SDS011;54550;48.838;8.828;2024-02-21T15:32:07;1.52;;;0.68;;
67749;SDS011;54550;48.838;8.828;2024-02-21T15:34:32;2.97;;;0.60;;
67749;SDS011;54550;48.838;8.828;2024-02-21T15:36:57;1.33;;;0.70;;
67749;SDS011;54550;48.838;8.828;2024-02-21T15:39:23;1.63;;;0.95;;
67749;SDS011;54550;48.838;8.828;2024-02-21T15:41:48;1.77;;;0.80;;
67749;SDS011;54550;48.838;8.828;2024-02-21T15:44:14;3.25;;;0.68;;
67749;SDS011;54550;48.838;8.828;2024-02-21T15:46:39;3.90;;;0.55;;
67749;SDS011;54550;48.838;8.828;2024-02-21T15:49:05;2.35;;;0.30;;
67749;SDS011;54550;48.838;8.828;2024-02-21T15:51:30;1.15;;;0.30;;
67749;SDS011;54550;48.838;8.828;2024-02-21T15:53:56;1.08;;;0.38;;
67749;SDS011;54550;48.838;8.828;2024-02-21T15:56:21;1.67;;;0.38;;
67749;SDS011;54550;48.838;8.828;2024-02-21T15:58:48;1.85;;;0.88;;
67749;SDS011;54550;48.838;8.828;2024-02-21T16:01:13;1.70;;;0.25;;
67749;SDS011;54550;48.838;8.828;2024-02-21T16:03:39;1.05;;;0.22;;
67749;SDS011;54550;48.838;8.828;2024-02-21T16:06:07;0.35;;;0.22;;
67749;SDS011;54550;48.838;8.828;2024-02-21T16:08:34;1.88;;;0.60;;
67749;SDS011;54550;48.838;8.828;2024-02-21T16:11:01;2.08;;;0.60;;
67749;SDS011;54550;48.838;8.828;2024-02-21T16:13:29;2.08;;;0.52;;
67749;SDS011;54550;48.838;8.828;2024-02-21T16:15:55;3.58;;;0.70;;
67749;SDS011;54550;48.838;8.828;2024-02-21T16:18:20;1.83;;;0.50;;
67749;SDS011;54550;48.838;8.828;2024-02-21T16:20:47;2.30;;;0.57;;
67749;SDS011;54550;48.838;8.828;2024-02-21T16:23:13;1.47;;;0.40;;
67749;SDS011;54550;48.838;8.828;2024-02-21T16:25:39;0.70;;;0.20;;
67749;SDS011;54550;48.838;8.828;2024-02-21T16:28:05;3.10;;;0.40;;
67749;SDS011;54550;48.838;8.828;2024-02-21T16:30:32;3.65;;;0.60;;
67749;SDS011;54550;48.838;8.828;2024-02-21T16:32:57;2.10;;;0.20;;